Terminal Aerodrome Forecast
Issued by NWS Louisville, KY

Home | Current Version | Previous Version | Text Only | Print | Product List | Glossary On
Versions: 1 2 3 4 5 6 7 8 9 10 11 12 13 14 15
000
FTUS43 KLMK 210200 AAA
TAFLEX
TAF AMD
KLEX 210249Z 2103/2124 04005KT P6SM SCT050
      TEMPO 2103/2105 BKN050
     FM210900 06003KT P6SM SCT025
     FM211200 09004KT P6SM SCT040
     FM211600 11005KT P6SM SCT250=

USA.gov is the U.S. government's official web portal to all federal, state and local government web resources and services.